Time;durP1;ratioP1;P1;durP2;ratioP2;P2;SDS_P1;SDS_P2;PMS_P1;PMS_P2;Temp;Humidity;BMP_temperature;BMP_pressure;BME280_temperature;BME280_humidity;BME280_pressure;Samples;Min_cycle;Max_cycle;Signal;HPM_P1;HPM_P2
2021/08/26 00:06:55;;;;;;;5.57;4.60;;;18.90;99.90;;;;;;4980041;28;20518;-87
2021/08/26 00:09:21;;;;;;;5.70;5.10;;;18.70;99.90;;;;;;4993290;28;20036;-88
2021/08/26 00:11:48;;;;;;;6.25;4.75;;;18.70;99.90;;;;;;4996049;28;20041;-87
2021/08/26 00:14:18;;;;;;;5.65;4.85;;;18.80;99.90;;;;;;4995633;28;20035;-87
2021/08/26 00:16:44;;;;;;;5.85;5.25;;;18.80;99.90;;;;;;4996217;28;20031;-87
2021/08/26 00:19:13;;;;;;;6.18;5.07;;;18.70;99.90;;;;;;4995553;28;20037;-87
2021/08/26 00:21:42;;;;;;;6.28;4.95;;;18.70;99.90;;;;;;4976470;28;20030;-88
2021/08/26 00:24:09;;;;;;;8.80;4.82;;;18.60;99.90;;;;;;5003969;28;20037;-88
2021/08/26 00:26:35;;;;;;;6.40;4.85;;;18.60;99.90;;;;;;4995337;28;20041;-87
2021/08/26 00:29:05;;;;;;;6.75;5.68;;;18.40;99.90;;;;;;4995809;28;20031;-87
2021/08/26 00:31:31;;;;;;;6.18;5.45;;;18.50;99.90;;;;;;4995373;28;20030;-87
2021/08/26 00:33:57;;;;;;;8.57;5.95;;;18.50;99.90;;;;;;4993618;28;20035;-87
2021/08/26 00:36:23;;;;;;;6.53;5.28;;;18.30;99.90;;;;;;4993007;28;20053;-88
2021/08/26 00:38:49;;;;;;;9.30;6.25;;;18.30;99.90;;;;;;4993988;28;20117;-88
2021/08/26 00:41:19;;;;;;;6.93;5.30;;;18.30;99.90;;;;;;4995403;28;20487;-88
2021/08/26 00:43:45;;;;;;;6.72;5.68;;;18.30;99.90;;;;;;4995647;28;20050;-87
2021/08/26 00:46:12;;;;;;;5.88;5.32;;;18.20;99.90;;;;;;4978101;28;20026;-87
2021/08/26 00:48:45;;;;;;;5.55;4.93;;;18.10;99.90;;;;;;4993884;28;20046;-87
2021/08/26 00:51:10;;;;;;;6.07;5.47;;;18.10;99.90;;;;;;5007434;28;20030;-87
2021/08/26 00:53:39;;;;;;;6.13;5.50;;;18.20;99.90;;;;;;4998596;28;20030;-87
2021/08/26 00:56:04;;;;;;;6.50;5.43;;;18.10;99.90;;;;;;4999079;28;20042;-87
2021/08/26 00:58:31;;;;;;;9.73;5.82;;;18.20;99.90;;;;;;4999065;28;20144;-87
2021/08/26 01:01:00;;;;;;;7.05;6.13;;;18.20;99.90;;;;;;4997230;28;20121;-88
2021/08/26 01:03:53;;;;;;;5.97;5.18;;;18.20;99.90;;;;;;4996377;28;20053;-87
2021/08/26 01:06:26;;;;;;;6.93;6.15;;;18.20;99.90;;;;;;5007888;28;20052;-88
2021/08/26 01:08:56;;;;;;;5.72;5.22;;;18.20;99.90;;;;;;4998183;28;20027;-87
2021/08/26 01:11:23;;;;;;;6.38;5.50;;;18.20;99.90;;;;;;4998558;28;20031;-87
2021/08/26 01:13:51;;;;;;;7.93;5.55;;;18.20;99.90;;;;;;4998794;28;20038;-87
2021/08/26 01:16:16;;;;;;;11.00;6.13;;;18.30;99.90;;;;;;4999191;28;20081;-87
2021/08/26 01:18:47;;;;;;;6.60;5.80;;;18.20;99.90;;;;;;4994954;28;20030;-87
2021/08/26 01:21:15;;;;;;;6.85;5.85;;;18.30;99.90;;;;;;4997737;28;20023;-86
2021/08/26 01:23:47;;;;;;;6.40;5.40;;;18.20;99.90;;;;;;4998306;28;20499;-87
2021/08/26 01:26:29;;;;;;;6.78;5.85;;;18.00;99.90;;;;;;4998231;28;20026;-87
2021/08/26 01:28:56;;;;;;;7.20;6.18;;;18.20;99.90;;;;;;4998528;28;20041;-87
2021/08/26 01:31:23;;;;;;;6.63;6.00;;;18.10;99.90;;;;;;4998301;28;20506;-87
2021/08/26 01:33:56;;;;;;;5.95;5.43;;;18.00;99.90;;;;;;4995361;28;20022;-87
2021/08/26 01:36:27;;;;;;;7.60;6.03;;;18.10;99.90;;;;;;4995722;28;20053;-87
2021/08/26 01:38:52;;;;;;;5.10;4.70;;;18.10;99.90;;;;;;4997430;28;20049;-87
2021/08/26 01:41:19;;;;;;;6.40;5.90;;;18.00;99.90;;;;;;4998066;28;20018;-87
2021/08/26 01:43:46;;;;;;;8.70;6.60;;;17.70;99.90;;;;;;4998558;28;20034;-87
2021/08/26 01:46:16;;;;;;;6.97;5.95;;;17.70;99.90;;;;;;4998321;28;20053;-87
2021/08/26 01:48:44;;;;;;;7.03;5.68;;;17.70;99.90;;;;;;4994129;28;20027;-87
2021/08/26 01:51:10;;;;;;;6.20;5.68;;;17.70;99.90;;;;;;4997318;28;20642;-87
2021/08/26 01:53:36;;;;;;;6.63;5.50;;;17.70;99.90;;;;;;4998546;28;20173;-87
2021/08/26 01:56:01;;;;;;;6.93;6.20;;;17.70;99.90;;;;;;4997895;28;20042;-87
2021/08/26 01:58:27;;;;;;;7.60;5.60;;;17.70;99.90;;;;;;4998085;28;20104;-87
2021/08/26 02:00:53;;;;;;;6.65;5.55;;;17.70;99.90;;;;;;4994948;28;20120;-87
2021/08/26 02:03:18;;;;;;;6.57;5.97;;;17.70;99.90;;;;;;4996096;28;20033;-87
2021/08/26 02:05:44;;;;;;;5.93;5.32;;;17.70;99.90;;;;;;4998019;28;20133;-87
2021/08/26 02:08:09;;;;;;;6.00;5.50;;;17.60;99.90;;;;;;4997656;28;20383;-87
2021/08/26 02:10:35;;;;;;;6.72;5.85;;;17.60;99.90;;;;;;4997591;28;20034;-87
2021/08/26 02:13:01;;;;;;;5.97;5.47;;;17.60;99.90;;;;;;4996804;28;20021;-87
2021/08/26 02:15:26;;;;;;;7.35;6.57;;;17.50;99.90;;;;;;4994529;28;20046;-88
2021/08/26 02:17:52;;;;;;;6.45;5.70;;;17.60;99.90;;;;;;4980927;28;20027;-87
2021/08/26 02:20:18;;;;;;;6.05;5.45;;;17.60;99.90;;;;;;4997172;28;20045;-87
2021/08/26 02:22:43;;;;;;;6.03;5.53;;;17.60;99.90;;;;;;4997631;28;20031;-88
2021/08/26 02:25:09;;;;;;;6.72;6.05;;;17.60;99.90;;;;;;4996794;28;20026;-87
2021/08/26 02:27:35;;;;;;;6.18;5.57;;;17.40;99.90;;;;;;4993577;28;20034;-87
2021/08/26 02:30:01;;;;;;;8.57;5.97;;;17.50;99.90;;;;;;4997905;28;20373;-87
2021/08/26 02:32:29;;;;;;;6.80;6.05;;;17.40;99.90;;;;;;4997184;28;20025;-87
2021/08/26 02:34:57;;;;;;;10.88;6.95;;;17.40;99.90;;;;;;4997135;28;20042;-87
2021/08/26 02:37:23;;;;;;;7.25;6.55;;;17.50;99.90;;;;;;4997022;28;20034;-87
2021/08/26 02:39:48;;;;;;;7.68;6.35;;;17.40;99.90;;;;;;4994238;28;20041;-87
2021/08/26 02:42:14;;;;;;;7.78;6.80;;;17.40;99.90;;;;;;4996671;28;20022;-87
2021/08/26 02:44:40;;;;;;;10.38;6.53;;;17.60;99.90;;;;;;4997753;28;20018;-87
2021/08/26 02:47:05;;;;;;;7.07;6.18;;;17.50;99.90;;;;;;4996902;28;20038;-87
2021/08/26 02:49:32;;;;;;;7.30;6.10;;;17.40;99.90;;;;;;4996994;28;20030;-87
2021/08/26 02:51:57;;;;;;;6.95;6.22;;;17.30;99.90;;;;;;4994694;28;20037;-87
2021/08/26 02:54:23;;;;;;;8.57;6.25;;;17.30;99.90;;;;;;4994615;28;20399;-87
2021/08/26 02:56:49;;;;;;;8.52;6.88;;;17.40;99.90;;;;;;4995651;28;20038;-88
2021/08/26 02:59:14;;;;;;;7.20;6.50;;;17.50;99.90;;;;;;4996561;28;20513;-87
2021/08/26 03:01:40;;;;;;;7.28;6.57;;;17.50;99.90;;;;;;4997026;28;20407;-88
2021/08/26 03:04:06;;;;;;;9.07;6.70;;;17.50;99.90;;;;;;4995679;28;20084;-87
2021/08/26 03:06:31;;;;;;;7.53;6.82;;;17.50;99.90;;;;;;4992969;28;20041;-87
2021/08/26 03:08:57;;;;;;;7.63;6.43;;;17.50;99.90;;;;;;4998088;28;20164;-88
2021/08/26 03:11:22;;;;;;;10.23;6.63;;;17.50;99.90;;;;;;4978607;28;20030;-87
2021/08/26 03:13:48;;;;;;;6.90;5.95;;;17.40;99.90;;;;;;4996817;28;20031;-88
2021/08/26 03:16:14;;;;;;;9.18;5.97;;;17.50;99.90;;;;;;4996814;28;20047;-87
2021/08/26 03:18:39;;;;;;;7.10;6.40;;;17.40;99.90;;;;;;4992438;28;20049;-87
2021/08/26 03:21:05;;;;;;;6.85;6.20;;;17.50;99.90;;;;;;5003764;28;20582;-87
2021/08/26 03:23:31;;;;;;;8.07;6.00;;;17.30;99.90;;;;;;4996708;28;20034;-87
2021/08/26 03:25:56;;;;;;;9.63;7.18;;;17.30;99.90;;;;;;4996317;28;20026;-87
2021/08/26 03:28:22;;;;;;;8.43;6.65;;;17.30;99.90;;;;;;4996630;28;20029;-87
2021/08/26 03:30:48;;;;;;;6.88;6.28;;;17.30;99.90;;;;;;4993052;28;20033;-87
2021/08/26 03:33:14;;;;;;;8.73;6.55;;;17.30;99.90;;;;;;4995379;28;20026;-87
2021/08/26 03:35:40;;;;;;;7.40;6.70;;;17.30;99.90;;;;;;4996226;28;20108;-87
2021/08/26 03:38:06;;;;;;;7.93;7.13;;;17.30;99.90;;;;;;4996045;28;20105;-87
2021/08/26 03:40:32;;;;;;;9.15;7.35;;;17.10;99.90;;;;;;4995894;28;20367;-87
2021/08/26 03:42:58;;;;;;;7.45;6.60;;;17.20;99.90;;;;;;4994744;28;20034;-87
2021/08/26 03:45:23;;;;;;;7.55;6.78;;;17.10;99.90;;;;;;4993960;28;20034;-87
2021/08/26 03:47:49;;;;;;;7.22;6.50;;;17.20;99.90;;;;;;4994207;28;20038;-87
2021/08/26 03:50:15;;;;;;;6.72;6.13;;;17.10;99.90;;;;;;4995942;28;20038;-87
2021/08/26 03:52:41;;;;;;;8.55;6.47;;;17.10;99.90;;;;;;4995900;28;20019;-87
2021/08/26 03:55:07;;;;;;;9.10;7.30;;;17.00;99.90;;;;;;4995271;28;20045;-87
2021/08/26 03:57:33;;;;;;;7.03;6.00;;;16.90;99.90;;;;;;4992574;28;20023;-87
2021/08/26 03:59:58;;;;;;;8.85;6.35;;;17.00;99.90;;;;;;4978992;28;20057;-87
2021/08/26 04:02:24;;;;;;;7.60;6.65;;;16.80;99.90;;;;;;4995728;28;20039;-87
2021/08/26 04:04:50;;;;;;;6.55;5.95;;;16.90;99.90;;;;;;4995507;28;20042;-87
2021/08/26 04:07:17;;;;;;;7.43;6.57;;;16.80;99.90;;;;;;4995730;28;20166;-87
2021/08/26 04:09:44;;;;;;;7.00;6.35;;;16.80;99.90;;;;;;4991929;28;20066;-87
2021/08/26 04:12:10;;;;;;;7.25;6.53;;;16.80;99.90;;;;;;4995883;28;20029;-87
2021/08/26 04:14:35;;;;;;;7.43;6.40;;;16.80;99.90;;;;;;4995563;28;20027;-87
2021/08/26 04:17:01;;;;;;;7.00;6.40;;;16.80;99.90;;;;;;4995577;28;20023;-87
2021/08/26 04:19:27;;;;;;;7.40;6.25;;;16.70;99.90;;;;;;4995475;28;20091;-87
2021/08/26 04:21:52;;;;;;;8.75;6.75;;;16.80;99.90;;;;;;4992949;28;20034;-87
2021/08/26 04:24:18;;;;;;;7.70;6.95;;;16.80;99.90;;;;;;4998021;28;20035;-87
2021/08/26 04:26:44;;;;;;;8.13;6.70;;;16.90;99.90;;;;;;5000063;28;20057;-87
2021/08/26 04:29:09;;;;;;;9.85;7.32;;;16.90;99.90;;;;;;4999472;28;20097;-88
2021/08/26 04:31:36;;;;;;;9.20;6.93;;;16.90;99.90;;;;;;4999660;28;20061;-87
2021/08/26 04:34:02;;;;;;;7.80;7.10;;;17.00;99.90;;;;;;4997882;28;20038;-87
2021/08/26 04:36:27;;;;;;;7.82;7.03;;;17.00;99.90;;;;;;4996411;28;20488;-87
2021/08/26 04:38:53;;;;;;;9.10;6.97;;;17.00;99.90;;;;;;4999988;28;20153;-87
2021/08/26 04:41:19;;;;;;;7.72;6.80;;;17.00;99.90;;;;;;4999638;28;20026;-87
2021/08/26 04:43:44;;;;;;;8.00;6.50;;;17.00;99.90;;;;;;4999607;28;20406;-88
2021/08/26 04:46:10;;;;;;;8.52;7.05;;;17.00;99.90;;;;;;4998871;28;20014;-87
2021/08/26 04:48:36;;;;;;;7.63;6.95;;;17.00;99.90;;;;;;4994895;28;20040;-86
2021/08/26 04:51:02;;;;;;;9.13;7.10;;;17.10;99.90;;;;;;4999749;28;20026;-87
2021/08/26 04:53:27;;;;;;;7.80;7.00;;;17.10;99.90;;;;;;4999785;28;20364;-87
2021/08/26 04:55:53;;;;;;;8.43;6.13;;;17.10;99.90;;;;;;4998945;28;20038;-87
2021/08/26 04:58:19;;;;;;;7.03;6.18;;;17.20;99.90;;;;;;4999065;28;20025;-87
2021/08/26 05:00:44;;;;;;;7.38;6.65;;;17.30;99.90;;;;;;4995075;28;20109;-87
2021/08/26 05:03:10;;;;;;;7.30;6.50;;;17.40;99.90;;;;;;4998880;28;20098;-87
2021/08/26 05:05:35;;;;;;;6.95;6.28;;;17.40;99.90;;;;;;4999007;28;20100;-87
2021/08/26 05:08:01;;;;;;;7.68;6.80;;;17.30;99.90;;;;;;4998968;28;20014;-87
2021/08/26 05:10:27;;;;;;;7.68;6.82;;;17.40;99.90;;;;;;4998902;28;20030;-87
2021/08/26 05:12:52;;;;;;;9.88;6.80;;;17.50;99.90;;;;;;4995924;28;20080;-87
2021/08/26 05:15:18;;;;;;;9.75;6.68;;;17.50;99.90;;;;;;4979481;28;20046;-87
2021/08/26 05:17:43;;;;;;;7.28;6.10;;;17.60;99.90;;;;;;4999488;28;20023;-87
2021/08/26 05:20:10;;;;;;;6.65;6.05;;;17.70;99.90;;;;;;4998142;28;20030;-87
2021/08/26 05:22:35;;;;;;;6.53;5.93;;;17.70;99.90;;;;;;4998628;28;20506;-87
2021/08/26 05:25:01;;;;;;;7.15;6.43;;;17.70;99.90;;;;;;4997532;28;20022;-87
2021/08/26 05:27:26;;;;;;;6.88;6.20;;;17.70;99.90;;;;;;4996129;28;20034;-87
2021/08/26 05:29:52;;;;;;;7.00;6.28;;;17.70;99.90;;;;;;4998608;28;20535;-87
2021/08/26 05:32:17;;;;;;;8.00;6.38;;;17.70;99.90;;;;;;4998495;28;20022;-88
2021/08/26 05:34:43;;;;;;;7.28;6.57;;;17.70;99.90;;;;;;4998011;28;20507;-87
2021/08/26 05:37:10;;;;;;;6.35;5.68;;;17.60;99.90;;;;;;4980324;28;20040;-87
2021/08/26 05:39:35;;;;;;;7.38;6.43;;;17.80;99.90;;;;;;4994240;28;20058;-87
2021/08/26 05:42:01;;;;;;;14.90;7.47;;;17.70;99.90;;;;;;4999219;28;20057;-87
2021/08/26 05:44:27;;;;;;;7.10;6.40;;;17.80;99.90;;;;;;4998205;28;20026;-87
2021/08/26 05:46:53;;;;;;;11.50;6.82;;;17.90;99.90;;;;;;4980376;28;20122;-87
2021/08/26 05:49:19;;;;;;;8.77;6.75;;;17.90;99.90;;;;;;4998479;28;20040;-88
2021/08/26 05:51:44;;;;;;;7.90;6.78;;;17.90;99.90;;;;;;4994421;28;20038;-87
2021/08/26 05:54:10;;;;;;;7.00;6.38;;;17.90;99.90;;;;;;4997917;28;20030;-86
2021/08/26 05:56:36;;;;;;;9.27;6.30;;;17.90;99.90;;;;;;4997897;28;20568;-87
2021/08/26 05:59:02;;;;;;;7.80;6.13;;;18.00;99.90;;;;;;4997926;28;20022;-87
2021/08/26 06:01:29;;;;;;;7.15;6.45;;;18.00;99.90;;;;;;4998125;28;20392;-87
2021/08/26 06:03:55;;;;;;;7.95;6.30;;;18.00;99.90;;;;;;4995349;28;20533;-86
2021/08/26 06:06:21;;;;;;;6.43;5.80;;;18.00;99.90;;;;;;4996097;28;20023;-87
2021/08/26 06:08:46;;;;;;;7.47;6.78;;;18.00;99.90;;;;;;4998537;28;20034;-87
2021/08/26 06:11:12;;;;;;;8.85;6.68;;;18.00;99.90;;;;;;4997659;28;20475;-86
2021/08/26 06:13:38;;;;;;;7.53;6.78;;;18.00;99.90;;;;;;4997753;28;20026;-87
2021/08/26 06:16:03;;;;;;;8.63;6.53;;;18.10;99.90;;;;;;4996317;28;20046;-87
2021/08/26 06:18:30;;;;;;;7.97;6.38;;;18.20;99.90;;;;;;4994435;28;20022;-87
2021/08/26 06:20:56;;;;;;;6.90;6.13;;;18.20;99.90;;;;;;4998109;28;20165;-87
2021/08/26 06:23:22;;;;;;;9.13;6.80;;;18.30;99.90;;;;;;4997392;28;20110;-87
2021/08/26 06:25:47;;;;;;;6.93;6.22;;;18.40;99.90;;;;;;4997584;28;20114;-87
2021/08/26 06:28:13;;;;;;;7.85;6.45;;;18.40;99.90;;;;;;4997198;28;20026;-88
2021/08/26 06:30:39;;;;;;;8.05;6.68;;;18.40;99.90;;;;;;4993375;28;20400;-87
2021/08/26 06:33:05;;;;;;;8.73;6.90;;;18.50;99.90;;;;;;4997868;28;20022;-88
2021/08/26 06:35:31;;;;;;;7.80;6.70;;;18.50;99.90;;;;;;4996986;28;20046;-87
2021/08/26 06:37:57;;;;;;;7.20;6.05;;;18.70;99.90;;;;;;4997659;28;20022;-87
2021/08/26 06:40:23;;;;;;;8.35;6.50;;;18.80;99.90;;;;;;4997280;28;20395;-87
2021/08/26 06:42:49;;;;;;;6.82;6.13;;;18.80;99.90;;;;;;4994004;28;20025;-88
2021/08/26 06:45:14;;;;;;;7.07;6.32;;;18.70;99.90;;;;;;4995482;28;20042;-87
2021/08/26 06:47:40;;;;;;;7.57;6.88;;;18.80;99.90;;;;;;4997824;28;20019;-87
2021/08/26 06:50:06;;;;;;;7.00;6.40;;;18.80;99.90;;;;;;4996867;28;20477;-87
2021/08/26 06:52:32;;;;;;;8.82;6.65;;;18.80;99.90;;;;;;4996156;28;20034;-87
2021/08/26 06:54:58;;;;;;;8.40;7.30;;;18.90;99.90;;;;;;4994933;28;20089;-87
2021/08/26 06:57:27;;;;;;;8.23;6.90;;;19.10;99.90;;;;;;4994310;28;20112;-87
2021/08/26 06:59:54;;;;;;;8.38;6.80;;;19.10;99.90;;;;;;4995860;28;20031;-87
2021/08/26 07:02:19;;;;;;;8.07;7.05;;;19.10;99.90;;;;;;4996884;28;20482;-87
2021/08/26 07:04:45;;;;;;;8.90;7.22;;;19.10;99.90;;;;;;4996644;28;20026;-87
2021/08/26 07:07:11;;;;;;;8.02;6.60;;;19.20;99.90;;;;;;4996454;28;20498;-87
2021/08/26 07:09:36;;;;;;;8.55;6.75;;;19.20;99.90;;;;;;4992197;28;20076;-87
2021/08/26 07:12:02;;;;;;;10.27;7.47;;;19.50;99.90;;;;;;4997185;28;20405;-87
2021/08/26 07:14:28;;;;;;;7.75;6.93;;;19.50;99.90;;;;;;4996646;28;20044;-87
2021/08/26 07:16:53;;;;;;;8.98;6.60;;;19.40;99.90;;;;;;4997182;28;20061;-87
2021/08/26 07:19:19;;;;;;;7.75;7.05;;;19.50;99.90;;;;;;4995932;28;20037;-87
2021/08/26 07:21:45;;;;;;;8.52;7.63;;;19.50;99.90;;;;;;4993077;28;20080;-86
2021/08/26 07:24:10;;;;;;;8.32;7.57;;;19.60;99.90;;;;;;4995872;28;20030;-86
2021/08/26 07:26:36;;;;;;;9.98;7.50;;;19.50;99.90;;;;;;4996114;28;20030;-87
2021/08/26 07:29:02;;;;;;;8.60;7.45;;;19.80;99.90;;;;;;4996138;28;20030;-87
2021/08/26 07:31:27;;;;;;;10.27;8.02;;;20.00;99.90;;;;;;4995997;28;20029;-87
2021/08/26 07:33:53;;;;;;;8.30;7.50;;;20.10;99.90;;;;;;4993692;28;20033;-90
2021/08/26 07:36:18;;;;;;;8.82;7.90;;;20.20;99.90;;;;;;4994385;28;20130;-91
2021/08/26 07:38:44;;;;;;;9.90;8.25;;;20.40;99.90;;;;;;4996340;28;20066;-90
2021/08/26 07:41:11;;;;;;;8.48;7.68;;;20.60;99.90;;;;;;4996456;28;20050;-95
2021/08/26 07:43:37;;;;;;;10.75;8.07;;;20.70;99.90;;;;;;4997255;28;20455;-90
2021/08/26 07:46:03;;;;;;;9.82;8.20;;;20.90;99.90;;;;;;4995049;28;20053;-90
2021/08/26 07:48:29;;;;;;;10.90;8.98;;;20.70;99.90;;;;;;4993263;28;20045;-86
2021/08/26 07:50:58;;;;;;;9.90;8.20;;;20.80;99.90;;;;;;4996619;28;20030;-86
2021/08/26 07:53:24;;;;;;;8.00;7.20;;;20.90;99.90;;;;;;4995633;28;20597;-86
2021/08/26 07:55:50;;;;;;;8.02;7.22;;;21.00;99.90;;;;;;4996068;28;20034;-85
2021/08/26 07:58:15;;;;;;;10.10;7.05;;;20.90;99.90;;;;;;4995876;28;20026;-86
2021/08/26 08:00:41;;;;;;;8.20;7.38;;;21.10;99.90;;;;;;4991506;28;20034;-86
2021/08/26 08:03:06;;;;;;;8.32;7.50;;;21.30;99.90;;;;;;4996154;28;20026;-86
2021/08/26 08:05:32;;;;;;;9.05;6.97;;;21.30;99.90;;;;;;4995903;28;20034;-86
2021/08/26 08:07:58;;;;;;;7.22;6.53;;;21.40;99.90;;;;;;4995492;28;20121;-86
2021/08/26 08:10:23;;;;;;;8.00;7.07;;;21.60;99.90;;;;;;4995934;28;20595;-85
2021/08/26 08:12:49;;;;;;;7.47;6.45;;;21.50;99.90;;;;;;4992855;28;20031;-86
2021/08/26 08:15:15;;;;;;;7.15;6.32;;;21.60;99.90;;;;;;4994514;28;20038;-86
2021/08/26 08:17:41;;;;;;;7.22;6.55;;;21.60;99.90;;;;;;4995691;28;20033;-85
2021/08/26 08:20:09;;;;;;;8.00;6.82;;;21.50;99.90;;;;;;4995975;28;20049;-86
2021/08/26 08:22:35;;;;;;;7.20;6.50;;;21.70;99.90;;;;;;4995386;28;20037;-86
2021/08/26 08:25:01;;;;;;;6.97;6.35;;;21.70;99.90;;;;;;4994177;28;20033;-86
2021/08/26 08:27:27;;;;;;;7.75;6.72;;;21.80;99.90;;;;;;4993056;28;20027;-86
2021/08/26 08:29:52;;;;;;;6.32;5.78;;;21.70;99.90;;;;;;4996234;28;20030;-85
2021/08/26 08:32:18;;;;;;;6.47;5.88;;;21.70;99.90;;;;;;4995698;28;20446;-86
2021/08/26 08:34:43;;;;;;;10.52;7.00;;;21.50;99.90;;;;;;4995999;28;20078;-85
2021/08/26 08:37:09;;;;;;;7.20;6.13;;;21.40;99.90;;;;;;4995048;28;20029;-86
2021/08/26 08:39:35;;;;;;;7.28;6.63;;;21.60;99.90;;;;;;4991271;28;20525;-86
2021/08/26 08:42:01;;;;;;;6.88;6.28;;;21.10;99.90;;;;;;4996179;28;20031;-86
2021/08/26 08:44:27;;;;;;;8.68;6.03;;;21.30;99.90;;;;;;4995819;28;20050;-86
2021/08/26 08:46:56;;;;;;;7.60;6.82;;;21.30;99.90;;;;;;4995961;28;20050;-85
2021/08/26 08:49:23;;;;;;;7.20;6.50;;;21.20;99.90;;;;;;4995374;28;20539;-86
2021/08/26 08:51:53;;;;;;;7.35;6.35;;;21.30;99.90;;;;;;4992041;28;20521;-86
2021/08/26 08:54:21;;;;;;;6.82;6.22;;;21.20;99.90;;;;;;4993638;28;20018;-85
2021/08/26 08:56:47;;;;;;;7.07;6.30;;;21.10;99.90;;;;;;4978467;28;20117;-86
2021/08/26 08:59:13;;;;;;;7.30;6.60;;;21.20;99.90;;;;;;4995519;28;20518;-86
2021/08/26 09:01:38;;;;;;;6.78;6.18;;;21.40;99.90;;;;;;4995717;28;20030;-86
2021/08/26 09:04:06;;;;;;;6.68;5.97;;;21.60;99.90;;;;;;4994508;28;20078;-86
2021/08/26 09:06:40;;;;;;;6.72;6.07;;;21.80;99.90;;;;;;4991365;28;20030;-85
2021/08/26 09:09:07;;;;;;;6.90;6.30;;;21.70;99.90;;;;;;5004010;28;20061;-86
2021/08/26 09:11:33;;;;;;;6.00;5.50;;;21.80;99.90;;;;;;4998994;28;20072;-86
2021/08/26 09:14:18;;;;;;;5.72;5.22;;;21.60;99.90;;;;;;4999468;28;20029;-86
2021/08/26 09:16:49;;;;;;;5.07;4.68;;;21.80;99.90;;;;;;4998742;28;20495;-85
2021/08/26 09:19:21;;;;;;;5.97;5.47;;;22.00;99.90;;;;;;4998701;28;20023;-86
2021/08/26 09:21:48;;;;;;;5.80;5.30;;;22.40;99.90;;;;;;4994881;28;20041;-86
2021/08/26 09:24:13;;;;;;;5.78;5.18;;;22.40;99.90;;;;;;4998367;28;20057;-86
2021/08/26 09:26:41;;;;;;;5.85;5.22;;;22.60;99.90;;;;;;4998871;28;20503;-86
2021/08/26 09:29:10;;;;;;;6.05;5.55;;;22.20;99.90;;;;;;4998384;28;20022;-86
2021/08/26 09:31:35;;;;;;;5.80;5.30;;;22.30;99.90;;;;;;4998457;28;20014;-86
2021/08/26 09:34:04;;;;;;;7.22;6.45;;;22.60;99.90;;;;;;4997530;28;20030;-86
2021/08/26 09:36:35;;;;;;;6.30;5.80;;;22.60;99.90;;;;;;4994347;28;20521;-86
2021/08/26 09:39:07;;;;;;;6.18;5.57;;;22.70;99.90;;;;;;4998813;28;20041;-86
2021/08/26 09:41:41;;;;;;;6.18;5.57;;;22.90;99.90;;;;;;4998015;28;20038;-87
2021/08/26 09:44:09;;;;;;;5.95;5.45;;;22.90;99.90;;;;;;4998526;28;20491;-86
2021/08/26 09:46:36;;;;;;;5.90;5.30;;;22.90;99.90;;;;;;4998550;28;20035;-86
2021/08/26 09:49:10;;;;;;;8.10;5.57;;;23.20;99.90;;;;;;4997330;28;20402;-88
2021/08/26 09:51:36;;;;;;;6.25;5.63;;;23.50;99.90;;;;;;4993762;28;20030;-88
2021/08/26 09:54:02;;;;;;;5.47;5.00;;;23.90;99.90;;;;;;4998606;28;20022;-88
2021/08/26 09:56:39;;;;;;;5.60;5.07;;;24.00;99.90;;;;;;4998195;28;20038;-88
2021/08/26 09:59:06;;;;;;;5.57;4.90;;;24.00;99.90;;;;;;4984567;28;20038;-88
2021/08/26 10:01:34;;;;;;;5.22;4.80;;;23.70;99.90;;;;;;4980048;28;20032;-90
2021/08/26 10:04:01;;;;;;;5.70;5.20;;;23.90;99.90;;;;;;4997191;28;20038;-87
2021/08/26 10:06:26;;;;;;;4.70;4.30;;;23.90;99.90;;;;;;4978082;28;20383;-88
2021/08/26 10:08:52;;;;;;;5.05;4.57;;;24.30;99.90;;;;;;4998700;28;20041;-88
2021/08/26 10:11:20;;;;;;;4.97;4.47;;;24.50;99.90;;;;;;4997633;28;20022;-88
2021/08/26 10:13:49;;;;;;;5.47;4.40;;;24.80;99.90;;;;;;4997532;28;20514;-89
2021/08/26 10:16:16;;;;;;;5.30;4.75;;;25.40;99.90;;;;;;4997195;28;20557;-88
2021/08/26 10:18:42;;;;;;;4.72;4.32;;;25.20;99.90;;;;;;4993391;28;20030;-88
2021/08/26 10:21:09;;;;;;;4.60;4.20;;;25.20;99.90;;;;;;4997001;28;20027;-88
2021/08/26 10:23:37;;;;;;;5.10;4.25;;;26.00;99.90;;;;;;4997331;28;20030;-88
2021/08/26 10:26:05;;;;;;;4.22;3.92;;;26.30;99.90;;;;;;4997880;28;20102;-88
2021/08/26 10:28:35;;;;;;;7.80;4.93;;;30.80;99.90;;;;;;4998011;28;20036;-91
2021/08/26 10:31:27;;;;;;;5.05;4.55;;;34.20;99.90;;;;;;4998109;28;20057;-96
2021/08/26 10:34:12;;;;;;;4.90;4.20;;;35.20;99.90;;;;;;4981014;28;20057;-92
2021/08/26 10:36:56;;;;;;;5.25;4.30;;;36.10;99.90;;;;;;4977861;28;20046;-87
2021/08/26 10:39:34;;;;;;;5.47;3.88;;;37.80;99.90;;;;;;5007507;28;20049;-95
2021/08/26 10:42:39;;;;;;;4.18;3.50;;;38.10;99.90;;;;;;4997154;28;20026;-86
2021/08/26 10:45:08;;;;;;;4.32;3.92;;;32.10;99.90;;;;;;4895652;29;20045;-87
2021/08/26 10:47:52;;;;;;;4.63;4.20;;;33.10;99.90;;;;;;4893912;29;20051;-87
2021/08/26 10:50:24;;;;;;;4.20;3.90;;;34.60;99.90;;;;;;4893263;29;20076;-84
2021/08/26 10:52:58;;;;;;;4.45;4.05;;;37.00;99.90;;;;;;4893675;29;20033;-84
2021/08/26 10:55:31;;;;;;;5.47;4.57;;;38.40;99.90;;;;;;4892292;29;20073;-84
2021/08/26 10:58:16;;;;;;;5.18;3.72;;;38.40;99.90;;;;;;4893535;29;20059;-84
2021/08/26 11:00:43;;;;;;;4.00;3.70;;;39.30;99.90;;;;;;4878831;29;20410;-84
2021/08/26 11:03:09;;;;;;;4.57;3.80;;;39.40;99.90;;;;;;4895391;29;20523;-84
2021/08/26 11:05:40;;;;;;;4.10;3.80;;;39.80;99.90;;;;;;4892262;29;20072;-86
2021/08/26 11:08:27;;;;;;;4.03;3.60;;;39.50;99.90;;;;;;4893311;29;20045;-83
2021/08/26 11:10:54;;;;;;;4.20;3.80;;;38.30;99.90;;;;;;4892084;29;20048;-83
2021/08/26 11:13:34;;;;;;;3.95;3.65;;;35.50;99.90;;;;;;4891568;29;20093;-83
2021/08/26 11:16:23;;;;;;;4.20;3.90;;;31.70;99.90;;;;;;4893009;29;20450;-83
2021/08/26 11:18:50;;;;;;;7.65;4.05;;;32.10;99.90;;;;;;4877890;29;20116;-84
2021/08/26 11:21:35;;;;;;;4.30;3.42;;;36.90;99.90;;;;;;4972000;28;20045;-84
2021/08/26 11:24:01;;;;;;;4.18;3.88;;;39.30;99.90;;;;;;4997091;28;20551;-83
2021/08/26 11:27:12;;;;;;;3.60;3.28;;;40.80;99.90;;;;;;4996397;28;20113;-83
2021/08/26 11:29:37;;;;;;;5.50;3.88;;;39.80;99.90;;;;;;4994128;28;20034;-84
2021/08/26 11:32:09;;;;;;;3.30;3.10;;;40.30;99.90;;;;;;4995847;28;20041;-84
2021/08/26 11:34:38;;;;;;;3.75;3.45;;;37.80;99.90;;;;;;4996614;28;20034;-84
2021/08/26 11:37:12;;;;;;;4.10;3.70;;;38.80;99.90;;;;;;4995494;28;20037;-84
2021/08/26 11:39:42;;;;;;;7.60;3.65;;;37.50;99.90;;;;;;4976360;28;20058;-84
2021/08/26 11:42:18;;;;;;;5.35;3.20;;;38.80;99.90;;;;;;5004452;28;20022;-84
2021/08/26 11:45:01;;;;;;;4.35;3.15;;;40.20;99.90;;;;;;4995426;28;20039;-84
2021/08/26 11:47:31;;;;;;;3.42;3.03;;;41.80;99.90;;;;;;4995986;28;20037;-84
2021/08/26 11:50:26;;;;;;;2.95;2.75;;;42.00;99.90;;;;;;4995851;28;20029;-83
2021/08/26 11:52:55;;;;;;;4.05;2.92;;;42.80;99.90;;;;;;4996252;28;20037;-84
2021/08/26 11:55:23;;;;;;;3.58;2.92;;;36.00;99.90;;;;;;4995906;28;20033;-84
2021/08/26 11:58:07;;;;;;;3.47;3.10;;;33.90;99.90;;;;;;4992555;28;20026;-84
2021/08/26 12:00:34;;;;;;;3.55;3.25;;;38.90;99.90;;;;;;4992018;28;20128;-84
2021/08/26 12:03:01;;;;;;;4.47;3.08;;;39.30;99.90;;;;;;4996548;28;20041;-84
2021/08/26 12:05:29;;;;;;;3.53;3.00;;;40.00;99.90;;;;;;4995883;28;20043;-84
2021/08/26 12:07:55;;;;;;;3.83;3.53;;;38.20;99.90;;;;;;4996498;28;20079;-84
2021/08/26 12:10:31;;;;;;;3.85;3.17;;;39.00;99.90;;;;;;4995747;28;20352;-83
2021/08/26 12:13:07;;;;;;;3.42;3.08;;;40.10;99.90;;;;;;4993886;28;20486;-87
2021/08/26 12:15:37;;;;;;;4.68;3.30;;;39.30;99.90;;;;;;4992131;28;20042;-86
2021/08/26 12:18:14;;;;;;;3.03;2.83;;;40.30;99.90;;;;;;4996247;28;20015;-84
2021/08/26 12:21:10;;;;;;;3.72;3.03;;;40.30;99.90;;;;;;4995698;28;20045;-84
2021/08/26 12:23:40;;;;;;;3.05;2.85;;;36.50;99.90;;;;;;4995317;28;20398;-84
2021/08/26 12:26:20;;;;;;;3.03;2.83;;;38.40;99.90;;;;;;4995717;28;20404;-83
2021/08/26 12:28:47;;;;;;;3.42;3.13;;;38.40;99.90;;;;;;4995867;28;20035;-84
2021/08/26 12:31:17;;;;;;;3.47;2.83;;;39.30;99.90;;;;;;4995518;28;20068;-84
2021/08/26 12:34:00;;;;;;;3.15;2.95;;;40.20;99.90;;;;;;4991753;28;20112;-84
2021/08/26 12:36:26;;;;;;;3.55;3.25;;;40.80;99.90;;;;;;4992609;28;20495;-84
2021/08/26 12:38:52;;;;;;;3.60;2.92;;;39.50;99.90;;;;;;4996152;28;20221;-84
2021/08/26 12:41:22;;;;;;;3.35;3.05;;;38.90;99.90;;;;;;4995389;28;20539;-84
2021/08/26 12:43:54;;;;;;;3.42;2.90;;;40.00;99.90;;;;;;4996462;28;20487;-84
2021/08/26 12:46:23;;;;;;;3.20;2.92;;;38.00;99.90;;;;;;4999579;28;20080;-84
2021/08/26 12:49:06;;;;;;;2.92;2.72;;;36.20;99.90;;;;;;4996026;28;20160;-84
2021/08/26 12:51:32;;;;;;;2.65;2.45;;;38.50;99.90;;;;;;4995764;28;20495;-84
2021/08/26 12:54:03;;;;;;;3.25;2.95;;;39.70;99.90;;;;;;4999651;28;20052;-84
2021/08/26 12:56:40;;;;;;;2.65;2.45;;;39.80;99.90;;;;;;4999275;28;20034;-84